createdAt,value
2022-08-16T00:00:22.298Z,18.60
2022-08-16T00:01:12.986Z,22.40
2022-08-16T00:02:12.910Z,19.80
2022-08-16T00:03:13.374Z,20.70
2022-08-16T00:04:11.954Z,20.50
2022-08-16T00:05:11.945Z,20.80
2022-08-16T00:06:11.965Z,20.60
2022-08-16T00:07:11.925Z,20.20
2022-08-16T00:08:11.922Z,19.30
2022-08-16T00:09:12.917Z,20.70
2022-08-16T00:10:21.023Z,17.00
2022-08-16T00:11:15.428Z,19.30
2022-08-16T00:12:11.905Z,18.50
2022-08-16T00:13:12.894Z,20.50
2022-08-16T00:14:11.882Z,16.40
2022-08-16T00:15:12.040Z,23.10
2022-08-16T00:17:00.692Z,17.80
2022-08-16T00:17:19.229Z,17.30
2022-08-16T00:18:12.858Z,18.10
2022-08-16T00:19:13.772Z,18.10
2022-08-16T00:20:12.328Z,20.00
2022-08-16T00:21:11.844Z,19.60
2022-08-16T00:22:13.552Z,19.10
2022-08-16T00:23:11.820Z,19.40
2022-08-16T00:24:12.163Z,20.10
2022-08-16T00:25:11.817Z,19.00
2022-08-16T00:26:34.858Z,18.10
2022-08-16T00:27:12.821Z,16.20
2022-08-16T00:28:11.798Z,16.30
2022-08-16T00:29:11.783Z,19.40
2022-08-16T00:30:19.849Z,20.40
2022-08-16T00:31:12.777Z,18.10
2022-08-16T00:32:11.771Z,16.90
2022-08-16T00:33:12.754Z,21.80
2022-08-16T00:34:18.237Z,25.90
2022-08-16T00:35:15.704Z,15.70
2022-08-16T00:36:11.741Z,18.90
2022-08-16T00:37:11.766Z,20.80
2022-08-16T00:38:40.197Z,20.30
2022-08-16T00:39:15.413Z,17.70
2022-08-16T00:40:33.365Z,20.40
2022-08-16T00:41:12.718Z,19.30
2022-08-16T00:42:11.719Z,16.40
2022-08-16T00:43:19.070Z,18.90
2022-08-16T00:44:12.692Z,17.00
2022-08-16T00:45:11.807Z,14.30
2022-08-16T00:46:33.930Z,17.60
2022-08-16T00:47:12.682Z,14.50
2022-08-16T00:48:30.744Z,15.40
2022-08-16T00:49:17.466Z,16.70
2022-08-16T00:50:12.656Z,16.70
2022-08-16T00:51:11.651Z,16.70
2022-08-16T00:52:29.578Z,21.50
2022-08-16T00:53:12.651Z,14.30
2022-08-16T00:54:11.801Z,16.70
2022-08-16T00:55:11.622Z,15.80
2022-08-16T00:56:11.611Z,15.10
2022-08-16T00:57:12.610Z,14.30
2022-08-16T00:58:13.110Z,17.20
2022-08-16T00:59:11.587Z,18.70
2022-08-16T01:00:11.587Z,16.60
2022-08-16T01:01:12.628Z,19.00
2022-08-16T01:02:30.036Z,15.90
2022-08-16T01:03:12.859Z,20.30
2022-08-16T01:04:28.984Z,18.90
2022-08-16T01:05:12.551Z,16.90
2022-08-16T01:06:32.595Z,16.80
2022-08-16T01:07:12.541Z,15.50
2022-08-16T01:08:35.980Z,17.70
2022-08-16T01:09:12.522Z,13.80
2022-08-16T01:10:16.100Z,15.20
2022-08-16T01:11:11.520Z,15.40
2022-08-16T01:12:11.517Z,16.20
2022-08-16T01:13:15.059Z,16.40
2022-08-16T01:14:11.503Z,17.70
2022-08-16T01:15:11.507Z,17.70
2022-08-16T01:16:11.479Z,14.70
2022-08-16T01:17:11.478Z,14.60
2022-08-16T01:18:39.243Z,17.00
2022-08-16T01:19:12.462Z,13.70
2022-08-16T01:20:24.081Z,15.30
2022-08-16T01:21:12.450Z,14.10
2022-08-16T01:22:48.527Z,15.50
2022-08-16T01:23:12.443Z,15.90
2022-08-16T01:24:53.678Z,18.10
2022-08-16T01:25:12.435Z,14.10
2022-08-16T01:26:33.723Z,14.10
2022-08-16T01:27:15.227Z,17.10
2022-08-16T01:28:20.181Z,17.20
2022-08-16T01:29:12.394Z,16.60
2022-08-16T01:30:20.260Z,17.10
2022-08-16T01:31:12.386Z,18.20
2022-08-16T01:32:11.394Z,14.10
2022-08-16T01:33:14.674Z,18.20
2022-08-16T01:34:25.011Z,19.40
2022-08-16T01:35:16.803Z,15.50
2022-08-16T01:36:13.131Z,14.80
2022-08-16T01:37:11.365Z,23.50
2022-08-16T01:38:11.353Z,17.70
2022-08-16T01:39:11.734Z,16.30
2022-08-16T01:40:11.338Z,15.10
2022-08-16T01:41:11.321Z,15.60
2022-08-16T01:42:13.034Z,20.00
2022-08-16T01:43:11.333Z,16.30
2022-08-16T01:44:11.302Z,17.90
2022-08-16T01:45:12.299Z,18.20
2022-08-16T01:46:38.020Z,15.10
2022-08-16T01:47:12.281Z,15.80
2022-08-16T01:48:19.651Z,18.30
2022-08-16T01:49:12.339Z,14.40
2022-08-16T01:50:43.608Z,15.50
2022-08-16T01:51:16.769Z,17.20
2022-08-16T01:52:29.476Z,14.10
2022-08-16T01:53:12.250Z,17.80
2022-08-16T01:54:13.127Z,18.10
2022-08-16T01:55:11.232Z,16.10
2022-08-16T01:56:23.239Z,17.40
2022-08-16T01:57:12.218Z,16.70
2022-08-16T01:58:12.271Z,16.80
2022-08-16T01:59:15.823Z,16.90
2022-08-16T02:00:19.324Z,17.70
2022-08-16T02:01:12.221Z,18.80
2022-08-16T02:02:26.575Z,18.90
2022-08-16T02:03:12.720Z,19.80
2022-08-16T02:04:11.705Z,18.30
2022-08-16T02:05:11.163Z,16.60
2022-08-16T02:06:11.161Z,18.00
2022-08-16T02:07:11.544Z,21.00
2022-08-16T02:08:32.694Z,19.80
2022-08-16T02:09:12.157Z,17.20
2022-08-16T02:10:11.139Z,20.00
2022-08-16T02:11:11.131Z,17.60
2022-08-16T02:12:50.216Z,18.40
2022-08-16T02:13:12.105Z,18.00
2022-08-16T02:14:18.159Z,17.70
2022-08-16T02:15:11.117Z,20.20
2022-08-16T02:16:18.411Z,15.00
2022-08-16T02:17:12.081Z,16.30
2022-08-16T02:18:12.430Z,17.50
2022-08-16T02:19:16.602Z,16.30
2022-08-16T02:20:12.093Z,15.10
2022-08-16T02:21:11.070Z,17.50
2022-08-16T02:22:34.687Z,21.40
2022-08-16T02:23:12.038Z,18.00
2022-08-16T02:24:31.543Z,20.00
2022-08-16T02:25:12.035Z,18.30
2022-08-16T02:26:11.038Z,17.40
2022-08-16T02:27:11.018Z,14.70
2022-08-16T02:28:11.011Z,19.20
2022-08-16T02:29:12.994Z,20.10
2022-08-16T02:30:11.003Z,18.20
2022-08-16T02:31:11.995Z,19.00
2022-08-16T02:33:01.118Z,22.00
2022-08-16T02:33:11.983Z,18.50
2022-08-16T02:34:10.966Z,17.50
2022-08-16T02:35:10.959Z,16.60
2022-08-16T02:36:14.259Z,18.30
2022-08-16T02:37:10.946Z,16.60
2022-08-16T02:38:10.943Z,19.20
2022-08-16T02:39:10.937Z,20.00
2022-08-16T02:40:10.931Z,18.20
2022-08-16T02:41:12.074Z,23.10
2022-08-16T02:42:10.922Z,18.50
2022-08-16T02:43:10.907Z,19.10
2022-08-16T02:44:10.899Z,18.00
2022-08-16T02:45:10.908Z,19.20
2022-08-16T02:46:10.901Z,21.60
2022-08-16T02:47:10.878Z,22.60
2022-08-16T02:48:29.867Z,20.60
2022-08-16T02:49:11.955Z,21.20
2022-08-16T02:50:55.296Z,19.00
2022-08-16T02:51:11.955Z,19.40
2022-08-16T02:52:10.846Z,17.20
2022-08-16T02:53:11.834Z,21.10
2022-08-16T02:54:10.835Z,19.40
2022-08-16T02:55:10.822Z,14.60
2022-08-16T02:56:10.834Z,17.20
2022-08-16T02:57:10.821Z,17.20
2022-08-16T02:58:10.822Z,16.20
2022-08-16T02:59:11.667Z,16.30
2022-08-16T03:00:34.150Z,15.10
2022-08-16T03:01:23.998Z,18.20
2022-08-16T03:02:12.841Z,20.20
2022-08-16T03:03:10.786Z,17.20
2022-08-16T03:04:29.926Z,18.60
2022-08-16T03:05:11.768Z,21.30
2022-08-16T03:06:39.084Z,18.80
2022-08-16T03:07:11.784Z,18.40
2022-08-16T03:08:51.147Z,21.40
2022-08-16T03:09:15.034Z,20.20
2022-08-16T03:10:11.729Z,16.60
2022-08-16T03:11:17.931Z,16.80
2022-08-16T03:12:11.728Z,17.50
2022-08-16T03:13:12.464Z,20.60
2022-08-16T03:14:11.572Z,17.50
2022-08-16T03:15:10.702Z,18.30
2022-08-16T03:16:38.086Z,19.30
2022-08-16T03:17:11.691Z,18.70
2022-08-16T03:18:12.600Z,19.30
2022-08-16T03:19:11.670Z,16.10
2022-08-16T03:20:11.980Z,16.90
2022-08-16T03:21:10.643Z,20.30
2022-08-16T03:22:10.670Z,19.30
2022-08-16T03:23:10.650Z,19.60
2022-08-16T03:24:29.060Z,18.00
2022-08-16T03:25:11.639Z,19.90
2022-08-16T03:26:10.627Z,17.10
2022-08-16T03:27:10.623Z,19.70
2022-08-16T03:28:10.622Z,15.40
2022-08-16T03:29:10.598Z,17.50
2022-08-16T03:30:17.583Z,19.00
2022-08-16T03:31:11.586Z,19.50
2022-08-16T03:32:10.587Z,18.60
2022-08-16T03:33:10.600Z,17.00
2022-08-16T03:34:10.566Z,20.70
2022-08-16T03:35:10.565Z,21.20
2022-08-16T03:36:30.284Z,18.50
2022-08-16T03:37:11.551Z,22.30
2022-08-16T03:38:33.608Z,17.30
2022-08-16T03:39:14.844Z,16.70
2022-08-16T03:40:10.582Z,17.80
2022-08-16T03:41:24.230Z,17.40
2022-08-16T03:42:11.513Z,18.20
2022-08-16T03:43:19.808Z,21.10
2022-08-16T03:44:11.498Z,18.50
2022-08-16T03:45:11.490Z,19.10
2022-08-16T03:46:10.486Z,19.80
2022-08-16T03:47:10.618Z,17.50
2022-08-16T03:48:10.486Z,19.70
2022-08-16T03:49:10.470Z,20.90
2022-08-16T03:50:26.246Z,20.60
2022-08-16T03:51:12.418Z,20.60
2022-08-16T03:52:10.458Z,21.60
2022-08-16T03:53:10.440Z,17.50
2022-08-16T03:54:12.534Z,19.90
2022-08-16T03:55:14.691Z,23.20
2022-08-16T03:56:19.489Z,23.80
2022-08-16T03:57:11.379Z,20.60
2022-08-16T03:58:11.401Z,18.50
2022-08-16T03:59:10.399Z,16.80
2022-08-16T04:00:10.398Z,17.30
2022-08-16T04:01:10.397Z,19.20
2022-08-16T04:02:22.021Z,18.20
2022-08-16T04:03:11.369Z,19.10
2022-08-16T04:04:10.370Z,17.70
2022-08-16T04:05:11.366Z,22.70
2022-08-16T04:06:10.350Z,20.90
2022-08-16T04:07:10.346Z,17.00
2022-08-16T04:08:23.487Z,18.70
2022-08-16T04:09:12.585Z,20.30
2022-08-16T04:10:36.339Z,19.20
2022-08-16T04:11:11.315Z,20.80
2022-08-16T04:12:10.678Z,19.60
2022-08-16T04:13:20.757Z,20.00
2022-08-16T04:14:33.044Z,22.60
2022-08-16T04:15:11.303Z,26.20
2022-08-16T04:16:27.228Z,18.60
2022-08-16T04:17:11.282Z,20.50
2022-08-16T04:18:10.266Z,20.30
2022-08-16T04:19:10.270Z,20.20
2022-08-16T04:20:23.750Z,17.20
2022-08-16T04:21:11.243Z,23.40
2022-08-16T04:22:10.246Z,25.60
2022-08-16T04:23:10.235Z,22.10
2022-08-16T04:24:11.242Z,24.80
2022-08-16T04:25:10.243Z,20.90
2022-08-16T04:26:16.672Z,22.70
2022-08-16T04:27:11.209Z,21.90
2022-08-16T04:28:53.015Z,22.40
2022-08-16T04:29:15.053Z,22.70
2022-08-16T04:30:11.242Z,22.00
2022-08-16T04:31:10.539Z,42.60
2022-08-16T04:32:10.186Z,38.30
2022-08-16T04:33:10.158Z,81.70
2022-08-16T04:34:10.165Z,35.60
2022-08-16T04:35:15.392Z,29.80
2022-08-16T04:36:12.183Z,30.50
2022-08-16T04:37:11.142Z,26.40
2022-08-16T04:38:11.023Z,21.10
2022-08-16T04:39:11.138Z,23.20
2022-08-16T04:40:10.156Z,26.60
2022-08-16T04:41:11.145Z,21.40
2022-08-16T04:42:11.364Z,30.40
2022-08-16T04:43:10.111Z,23.30
2022-08-16T04:44:32.371Z,22.80
2022-08-16T04:45:11.089Z,24.60
2022-08-16T04:46:32.015Z,22.90
2022-08-16T04:47:21.545Z,24.10
2022-08-16T04:48:11.082Z,24.70
2022-08-16T04:49:11.071Z,23.00
2022-08-16T04:50:10.062Z,27.30
2022-08-16T04:51:12.375Z,22.50
2022-08-16T04:52:35.260Z,23.00
2022-08-16T04:53:11.050Z,21.20
2022-08-16T04:54:10.041Z,22.20
2022-08-16T04:55:12.014Z,22.90
2022-08-16T04:56:11.196Z,21.00
2022-08-16T04:57:10.010Z,21.20
2022-08-16T04:58:44.538Z,24.80
2022-08-16T04:59:11.010Z,21.50
2022-08-16T05:00:30.300Z,20.70
2022-08-16T05:01:11.186Z,23.90
2022-08-16T05:02:41.111Z,20.90
2022-08-16T05:03:11.016Z,21.50
2022-08-16T05:04:19.269Z,21.10
2022-08-16T05:05:17.071Z,23.70
2022-08-16T05:06:10.969Z,25.90
2022-08-16T05:07:14.983Z,26.30
2022-08-16T05:08:27.980Z,22.00
2022-08-16T05:09:10.940Z,20.50
2022-08-16T05:10:19.569Z,22.60
2022-08-16T05:11:10.931Z,20.40
2022-08-16T05:12:11.048Z,23.90
2022-08-16T05:13:09.977Z,19.20
2022-08-16T05:14:10.898Z,20.70
2022-08-16T05:15:10.914Z,19.50
2022-08-16T05:16:09.894Z,19.40
2022-08-16T05:17:09.874Z,22.00
2022-08-16T05:18:09.882Z,25.80
2022-08-16T05:19:11.675Z,20.00
2022-08-16T05:20:38.794Z,20.90
2022-08-16T05:21:11.270Z,17.90
2022-08-16T05:22:18.132Z,19.40
2022-08-16T05:23:11.459Z,19.40
2022-08-16T05:24:09.842Z,21.00
2022-08-16T05:25:09.870Z,21.90
2022-08-16T05:26:20.333Z,21.10
2022-08-16T05:27:11.430Z,21.70
2022-08-16T05:28:09.806Z,21.50
2022-08-16T05:29:11.060Z,17.50
2022-08-16T05:30:34.792Z,19.90
2022-08-16T05:31:10.790Z,19.00
2022-08-16T05:32:32.491Z,21.70
2022-08-16T05:33:16.614Z,20.10
2022-08-16T05:34:19.446Z,18.50
2022-08-16T05:35:11.399Z,25.40
2022-08-16T05:36:14.326Z,18.30
2022-08-16T05:37:10.762Z,25.50
2022-08-16T05:38:33.114Z,21.20
2022-08-16T05:39:10.746Z,22.60
2022-08-16T05:40:09.749Z,22.10
2022-08-16T05:41:09.710Z,22.80
2022-08-16T05:42:09.710Z,21.60
2022-08-16T05:43:12.056Z,21.80
2022-08-16T05:44:23.927Z,17.00
2022-08-16T05:45:10.694Z,22.80
2022-08-16T05:46:29.951Z,19.60
2022-08-16T05:47:10.674Z,20.60
2022-08-16T05:48:09.666Z,19.30
2022-08-16T05:49:09.930Z,22.60
2022-08-16T05:50:09.645Z,24.40
2022-08-16T05:51:10.685Z,22.50
2022-08-16T05:52:11.157Z,19.10
2022-08-16T05:53:10.682Z,18.50
2022-08-16T05:54:11.239Z,20.50
2022-08-16T05:55:09.618Z,20.90
2022-08-16T05:56:09.606Z,19.30
2022-08-16T05:57:09.601Z,20.80
2022-08-16T05:58:09.595Z,22.00
2022-08-16T05:59:10.793Z,22.80
2022-08-16T06:00:09.930Z,20.70
2022-08-16T06:01:09.620Z,21.10
2022-08-16T06:02:09.566Z,23.10
2022-08-16T06:03:13.035Z,22.20
2022-08-16T06:04:12.736Z,20.10
2022-08-16T06:05:10.744Z,21.60
2022-08-16T06:06:09.552Z,19.70
2022-08-16T06:07:25.008Z,19.10
2022-08-16T06:08:10.533Z,19.70
2022-08-16T06:09:10.538Z,20.40
2022-08-16T06:10:09.733Z,18.10
2022-08-16T06:11:10.326Z,19.00
2022-08-16T06:12:10.505Z,18.90
2022-08-16T06:13:09.489Z,19.20
2022-08-16T06:14:09.505Z,19.10
2022-08-16T06:15:09.899Z,22.80
2022-08-16T06:16:09.482Z,20.50
2022-08-16T06:17:10.478Z,18.50
2022-08-16T06:18:09.481Z,20.30
2022-08-16T06:19:09.461Z,21.90
2022-08-16T06:20:09.458Z,19.40
2022-08-16T06:21:09.446Z,17.10
2022-08-16T06:22:09.433Z,22.50
2022-08-16T06:23:17.297Z,19.40
2022-08-16T06:24:55.066Z,21.70
2022-08-16T06:25:10.414Z,17.90
2022-08-16T06:26:09.414Z,19.10
2022-08-16T06:27:09.415Z,17.20
2022-08-16T06:28:10.004Z,19.00
2022-08-16T06:29:09.401Z,16.60
2022-08-16T06:30:09.394Z,18.60
2022-08-16T06:31:12.074Z,15.90
2022-08-16T06:32:09.379Z,17.80
2022-08-16T06:33:12.520Z,15.50
2022-08-16T06:34:53.262Z,18.10
2022-08-16T06:35:10.355Z,15.80
2022-08-16T06:36:09.345Z,16.70
2022-08-16T06:37:09.340Z,19.60
2022-08-16T06:38:31.991Z,17.00
2022-08-16T06:39:10.338Z,19.80
2022-08-16T06:40:12.897Z,16.00
2022-08-16T06:41:12.379Z,18.40
2022-08-16T06:42:09.305Z,14.80
2022-08-16T06:43:09.297Z,18.50
2022-08-16T06:44:09.293Z,19.50
2022-08-16T06:45:10.306Z,21.00
2022-08-16T06:46:09.842Z,19.30
2022-08-16T06:47:09.278Z,18.40
2022-08-16T06:48:09.269Z,16.60
2022-08-16T06:49:10.952Z,15.30
2022-08-16T06:50:09.281Z,15.20
2022-08-16T06:51:10.245Z,14.00
2022-08-16T06:52:58.490Z,19.30
2022-08-16T06:53:10.625Z,19.40
2022-08-16T06:54:09.229Z,16.70
2022-08-16T06:55:13.674Z,16.90
2022-08-16T06:56:13.887Z,17.20
2022-08-16T06:57:11.590Z,15.80
2022-08-16T06:58:22.329Z,17.50
2022-08-16T06:59:10.354Z,21.00
2022-08-16T07:00:09.229Z,16.40
2022-08-16T07:01:15.818Z,18.20
2022-08-16T07:02:33.422Z,16.20
2022-08-16T07:03:27.870Z,17.60
2022-08-16T07:04:10.386Z,16.00
2022-08-16T07:05:15.039Z,17.00
2022-08-16T07:06:10.162Z,16.30
2022-08-16T07:07:09.757Z,20.20
2022-08-16T07:08:09.138Z,16.30
2022-08-16T07:09:09.342Z,17.40
2022-08-16T07:10:09.193Z,19.20
2022-08-16T07:11:09.126Z,17.40
2022-08-16T07:12:09.100Z,15.80
2022-08-16T07:13:11.634Z,16.30
2022-08-16T07:14:24.198Z,19.80
2022-08-16T07:15:18.705Z,18.20
2022-08-16T07:16:09.069Z,21.20
2022-08-16T07:17:12.638Z,18.60
2022-08-16T07:18:09.074Z,18.60
2022-08-16T07:19:09.049Z,18.70
2022-08-16T07:20:35.277Z,17.20
2022-08-16T07:21:10.047Z,18.00
2022-08-16T07:22:09.037Z,20.50
2022-08-16T07:23:13.309Z,17.60
2022-08-16T07:24:09.025Z,18.00
2022-08-16T07:25:09.022Z,19.50
2022-08-16T07:26:09.017Z,19.10
2022-08-16T07:27:09.017Z,16.60
2022-08-16T07:28:11.861Z,16.90
2022-08-16T07:29:08.990Z,16.90
2022-08-16T07:30:38.826Z,17.40
2022-08-16T07:31:13.044Z,17.20
2022-08-16T07:32:08.976Z,17.10
2022-08-16T07:33:08.996Z,16.10
2022-08-16T07:34:10.003Z,16.40
2022-08-16T07:35:08.965Z,17.70
2022-08-16T07:36:09.777Z,16.50
2022-08-16T07:37:09.750Z,16.70
2022-08-16T07:38:08.950Z,13.60
2022-08-16T07:39:08.943Z,16.60
2022-08-16T07:40:11.563Z,13.00
2022-08-16T07:41:09.533Z,13.30
2022-08-16T07:42:08.901Z,13.30
2022-08-16T07:43:08.898Z,16.80
2022-08-16T07:44:16.133Z,18.40
2022-08-16T07:45:10.374Z,17.50
2022-08-16T07:46:38.454Z,14.90
2022-08-16T07:47:09.861Z,14.80
2022-08-16T07:48:11.201Z,14.50
2022-08-16T07:49:11.382Z,15.40
2022-08-16T07:50:08.849Z,15.90
2022-08-16T07:51:09.853Z,12.40
2022-08-16T07:52:18.781Z,17.10
2022-08-16T07:53:09.826Z,14.20
2022-08-16T07:54:09.914Z,12.40
2022-08-16T07:55:08.810Z,14.30
2022-08-16T07:56:08.825Z,16.30
2022-08-16T07:57:11.406Z,12.50
2022-08-16T07:58:08.790Z,18.50
2022-08-16T07:59:08.785Z,14.40
2022-08-16T08:00:08.778Z,16.80
2022-08-16T08:01:10.993Z,14.90
2022-08-16T08:02:12.101Z,13.30
2022-08-16T08:03:08.757Z,15.20
2022-08-16T08:04:08.745Z,14.30
2022-08-16T08:05:08.739Z,14.70
2022-08-16T08:06:10.403Z,14.70
2022-08-16T08:07:08.972Z,12.70
2022-08-16T08:08:11.741Z,13.60
2022-08-16T08:09:09.713Z,12.80
2022-08-16T08:10:11.142Z,13.50
2022-08-16T08:11:09.360Z,13.30
2022-08-16T08:12:08.704Z,15.20
2022-08-16T08:13:09.693Z,12.70
2022-08-16T08:14:08.690Z,15.50
2022-08-16T08:15:10.213Z,12.30
2022-08-16T08:16:08.668Z,13.90
2022-08-16T08:17:09.686Z,13.50
2022-08-16T08:18:29.216Z,11.90
2022-08-16T08:19:09.934Z,12.70
2022-08-16T08:20:08.650Z,14.30
2022-08-16T08:21:08.633Z,13.20
2022-08-16T08:22:08.644Z,12.60
2022-08-16T08:23:09.612Z,15.10
2022-08-16T08:24:09.376Z,13.90
2022-08-16T08:25:08.605Z,14.20
2022-08-16T08:26:17.473Z,14.60
2022-08-16T08:27:10.617Z,14.30
2022-08-16T08:28:10.803Z,12.00
2022-08-16T08:29:08.691Z,11.50
2022-08-16T08:30:49.721Z,11.60
2022-08-16T08:31:09.568Z,12.60
2022-08-16T08:32:51.124Z,11.30
2022-08-16T08:33:09.562Z,13.10
2022-08-16T08:34:08.563Z,11.80
2022-08-16T08:35:08.537Z,14.90
2022-08-16T08:36:08.534Z,10.80
2022-08-16T08:37:08.532Z,12.50
2022-08-16T08:38:08.621Z,12.70
2022-08-16T08:39:13.053Z,12.30
2022-08-16T08:40:09.635Z,13.30
2022-08-16T08:41:09.501Z,11.30
2022-08-16T08:42:08.498Z,13.40
2022-08-16T08:43:12.364Z,12.10
2022-08-16T08:44:28.323Z,10.50
2022-08-16T08:45:16.643Z,12.20
2022-08-16T08:46:17.893Z,11.50
2022-08-16T08:47:12.070Z,12.10
2022-08-16T08:48:08.457Z,12.70
2022-08-16T08:49:09.474Z,9.80
2022-08-16T08:50:08.445Z,11.20
2022-08-16T08:51:08.729Z,9.50
2022-08-16T08:52:09.357Z,10.20
2022-08-16T08:53:08.430Z,13.30
2022-08-16T08:54:09.301Z,11.90
2022-08-16T08:55:10.335Z,12.40
2022-08-16T08:56:23.587Z,12.70
2022-08-16T08:57:09.402Z,16.20
2022-08-16T08:58:08.402Z,10.70
2022-08-16T08:59:13.510Z,9.80
2022-08-16T09:00:13.041Z,8.90
2022-08-16T09:01:09.373Z,12.20
2022-08-16T09:02:08.373Z,9.90
2022-08-16T09:03:08.409Z,9.20
2022-08-16T09:04:08.463Z,11.30
2022-08-16T09:05:14.992Z,10.90
2022-08-16T09:06:09.372Z,10.00
2022-08-16T09:07:08.334Z,10.10
2022-08-16T09:08:09.341Z,11.60
2022-08-16T09:09:08.330Z,13.20
2022-08-16T09:10:21.148Z,9.70
2022-08-16T09:11:09.318Z,8.20
2022-08-16T09:12:09.305Z,10.50
2022-08-16T09:13:10.616Z,9.00
2022-08-16T09:14:08.492Z,9.40
2022-08-16T09:15:09.290Z,10.20
2022-08-16T09:16:08.305Z,10.20
2022-08-16T09:17:11.980Z,10.10
2022-08-16T09:18:26.977Z,10.40
2022-08-16T09:20:08.261Z,9.80
2022-08-16T09:21:09.533Z,8.80
2022-08-16T09:22:21.069Z,9.30
2022-08-16T09:23:09.237Z,8.30
2022-08-16T09:24:09.868Z,11.20
2022-08-16T09:25:11.539Z,10.10
2022-08-16T09:26:44.243Z,11.00
2022-08-16T09:27:09.228Z,10.00
2022-08-16T09:28:09.278Z,13.70
2022-08-16T09:29:14.554Z,9.80
2022-08-16T09:30:33.831Z,10.50
2022-08-16T09:31:11.020Z,9.00
2022-08-16T09:32:08.193Z,13.20
2022-08-16T09:33:08.181Z,9.90
2022-08-16T09:34:08.169Z,8.60
2022-08-16T09:35:08.165Z,8.60
2022-08-16T09:36:11.782Z,8.70
2022-08-16T09:37:17.980Z,9.20
2022-08-16T09:38:09.811Z,11.80
2022-08-16T09:39:08.169Z,9.40
2022-08-16T09:40:31.633Z,12.50
2022-08-16T09:41:14.791Z,9.60
2022-08-16T09:42:10.440Z,8.20
2022-08-16T09:43:08.802Z,9.60
2022-08-16T09:45:09.440Z,10.20
2022-08-16T09:45:17.309Z,9.90
2022-08-16T09:46:44.561Z,11.30
2022-08-16T09:47:10.506Z,14.70
2022-08-16T09:48:08.109Z,9.00
2022-08-16T09:49:08.534Z,9.90
2022-08-16T09:50:11.919Z,9.40
2022-08-16T09:51:08.072Z,10.70
2022-08-16T09:52:08.653Z,8.50
2022-08-16T09:53:08.108Z,9.50
2022-08-16T09:54:09.481Z,10.90
2022-08-16T09:55:08.047Z,10.90
2022-08-16T09:56:11.335Z,9.20
2022-08-16T09:57:08.037Z,11.00
2022-08-16T09:58:08.034Z,8.90
2022-08-16T09:59:08.589Z,8.30
2022-08-16T10:00:44.188Z,10.60
2022-08-16T10:01:11.557Z,10.10
2022-08-16T10:02:27.101Z,9.70
2022-08-16T10:03:10.057Z,7.90
2022-08-16T10:04:29.242Z,7.60
2022-08-16T10:05:10.241Z,9.10
2022-08-16T10:06:07.977Z,12.60
2022-08-16T10:07:15.128Z,7.80
2022-08-16T10:08:25.840Z,9.10
2022-08-16T10:09:11.380Z,9.60
2022-08-16T10:10:11.615Z,10.30
2022-08-16T10:11:09.293Z,8.30
2022-08-16T10:12:11.621Z,9.60
2022-08-16T10:13:08.940Z,10.10
2022-08-16T10:14:07.953Z,11.50
2022-08-16T10:15:08.924Z,11.60
2022-08-16T10:17:07.913Z,9.90
2022-08-16T10:19:00.091Z,9.90
2022-08-16T10:19:08.932Z,9.50
2022-08-16T10:20:07.896Z,8.00
2022-08-16T10:21:07.890Z,8.50
2022-08-16T10:22:07.884Z,10.10
2022-08-16T10:23:09.921Z,10.80
2022-08-16T10:24:08.877Z,10.80
2022-08-16T10:25:07.892Z,10.60
2022-08-16T10:27:20.112Z,7.60
2022-08-16T10:27:25.509Z,9.00
2022-08-16T10:28:27.995Z,8.90
2022-08-16T10:29:09.840Z,12.30
2022-08-16T10:30:07.844Z,7.60
2022-08-16T10:31:08.840Z,8.30
2022-08-16T10:32:08.829Z,11.50
2022-08-16T10:33:07.832Z,8.80
2022-08-16T10:34:30.896Z,11.20
2022-08-16T10:35:08.816Z,9.90
2022-08-16T10:36:07.818Z,7.50
2022-08-16T10:37:07.807Z,11.80
2022-08-16T10:38:09.588Z,7.20
2022-08-16T10:39:08.836Z,9.20
2022-08-16T10:40:28.390Z,8.20
2022-08-16T10:41:08.787Z,11.30
2022-08-16T10:42:07.756Z,7.20
2022-08-16T10:43:08.345Z,10.00
2022-08-16T10:44:09.628Z,7.60
2022-08-16T10:45:07.757Z,11.80
2022-08-16T10:46:39.684Z,9.10
2022-08-16T10:47:08.751Z,7.60
2022-08-16T10:48:27.732Z,9.80
2022-08-16T10:49:08.739Z,9.50
2022-08-16T10:50:18.968Z,11.10
2022-08-16T10:51:08.724Z,12.40
2022-08-16T10:52:18.865Z,9.30
2022-08-16T10:53:08.728Z,8.90
2022-08-16T10:54:07.727Z,9.10
2022-08-16T10:56:55.828Z,8.90
2022-08-16T10:57:12.024Z,8.90
2022-08-16T10:58:11.413Z,7.30
2022-08-16T11:00:21.302Z,9.50
2022-08-16T11:03:37.433Z,6.60
2022-08-16T11:03:42.651Z,8.00
2022-08-16T11:05:10.780Z,7.20
2022-08-16T11:06:12.034Z,8.60
2022-08-16T11:07:07.921Z,6.60
2022-08-16T11:08:07.636Z,9.30
2022-08-16T11:09:25.235Z,11.90
2022-08-16T11:11:12.964Z,7.70
2022-08-16T11:12:13.691Z,7.70
2022-08-16T11:14:11.240Z,7.50
2022-08-16T11:15:17.207Z,8.00
2022-08-16T11:17:11.185Z,12.00
2022-08-16T11:19:03.785Z,8.50
2022-08-16T11:19:13.061Z,7.50
2022-08-16T11:21:09.567Z,7.50
2022-08-16T11:22:39.212Z,8.90
2022-08-16T11:23:09.556Z,12.10
2022-08-16T11:24:39.508Z,9.50
2022-08-16T11:25:12.283Z,8.90
2022-08-16T11:26:22.813Z,7.80
2022-08-16T11:27:35.320Z,8.60
2022-08-16T11:28:09.539Z,8.40
2022-08-16T11:29:15.048Z,10.90
2022-08-16T11:30:12.188Z,11.40
2022-08-16T11:31:07.515Z,10.00
2022-08-16T11:32:07.681Z,9.00
2022-08-16T11:33:07.513Z,8.50
2022-08-16T11:34:07.499Z,8.70
2022-08-16T11:35:10.200Z,8.40
2022-08-16T11:36:27.388Z,9.50
2022-08-16T11:37:15.051Z,8.60
2022-08-16T11:38:46.917Z,9.40
2022-08-16T11:39:10.362Z,8.10
2022-08-16T11:40:07.513Z,11.80
2022-08-16T11:41:07.470Z,7.80
2022-08-16T11:42:16.779Z,9.70
2022-08-16T11:43:10.102Z,7.60
2022-08-16T11:44:07.455Z,12.20
2022-08-16T11:45:07.463Z,7.90
2022-08-16T11:46:34.220Z,9.10
2022-08-16T11:47:08.439Z,7.10
2022-08-16T11:48:07.427Z,8.00
2022-08-16T11:49:12.718Z,10.20
2022-08-16T11:50:09.480Z,9.60
2022-08-16T11:51:07.444Z,9.90
2022-08-16T11:52:07.421Z,10.80
2022-08-16T11:53:08.377Z,10.00
2022-08-16T11:54:08.918Z,11.60
2022-08-16T11:55:08.400Z,15.70
2022-08-16T11:56:07.408Z,11.80
2022-08-16T11:57:09.191Z,9.50
2022-08-16T11:58:07.387Z,10.20
2022-08-16T11:59:07.375Z,10.80
2022-08-16T12:00:07.370Z,7.50
2022-08-16T12:01:10.643Z,10.70
2022-08-16T12:02:32.595Z,11.20
2022-08-16T12:03:08.411Z,10.90
2022-08-16T12:04:07.444Z,14.70
2022-08-16T12:05:07.339Z,8.60
2022-08-16T12:06:07.360Z,8.70
2022-08-16T12:07:07.335Z,11.80
2022-08-16T12:08:07.327Z,8.50
2022-08-16T12:09:07.325Z,11.40
2022-08-16T12:10:07.319Z,8.10
2022-08-16T12:11:07.323Z,8.90
2022-08-16T12:12:07.299Z,8.70
2022-08-16T12:13:07.303Z,9.40
2022-08-16T12:14:07.291Z,16.00
2022-08-16T12:15:07.284Z,9.10
2022-08-16T12:16:07.288Z,8.30
2022-08-16T12:17:08.134Z,13.30
2022-08-16T12:18:07.274Z,11.90
2022-08-16T12:19:07.266Z,8.20
2022-08-16T12:20:07.552Z,9.60
2022-08-16T12:21:07.258Z,8.30
2022-08-16T12:22:18.933Z,9.10
2022-08-16T12:23:08.240Z,14.60
2022-08-16T12:24:07.241Z,10.10
2022-08-16T12:25:07.238Z,12.60
2022-08-16T12:26:10.304Z,12.60
2022-08-16T12:27:07.237Z,10.10
2022-08-16T12:28:07.217Z,8.00
2022-08-16T12:29:07.206Z,11.30
2022-08-16T12:30:07.209Z,8.20
2022-08-16T12:31:08.202Z,8.60
2022-08-16T12:32:26.620Z,10.60
2022-08-16T12:33:08.188Z,9.90
2022-08-16T12:34:07.181Z,9.50
2022-08-16T12:35:07.177Z,11.00
2022-08-16T12:36:09.939Z,8.70
2022-08-16T12:37:11.801Z,8.90
2022-08-16T12:38:37.943Z,11.20
2022-08-16T12:39:08.153Z,10.00
2022-08-16T12:40:07.239Z,13.70
2022-08-16T12:41:08.308Z,13.60
2022-08-16T12:42:07.145Z,10.30
2022-08-16T12:43:07.149Z,10.90
2022-08-16T12:44:07.130Z,12.80
2022-08-16T12:45:07.115Z,9.90
2022-08-16T12:46:07.114Z,12.10
2022-08-16T12:47:07.101Z,12.10
2022-08-16T12:48:32.870Z,9.90
2022-08-16T12:49:09.128Z,10.50
2022-08-16T12:50:07.092Z,9.20
2022-08-16T12:51:19.450Z,9.30
2022-08-16T12:52:08.081Z,10.10
2022-08-16T12:53:07.068Z,10.50
2022-08-16T12:54:07.073Z,11.60
2022-08-16T12:55:07.071Z,14.80
2022-08-16T12:56:07.052Z,11.70
2022-08-16T12:57:07.041Z,11.70
2022-08-16T12:58:13.949Z,9.70
2022-08-16T12:59:08.056Z,12.70
2022-08-16T13:00:07.025Z,8.70
2022-08-16T13:01:07.046Z,12.20
2022-08-16T13:02:07.004Z,11.00
2022-08-16T13:03:09.004Z,9.40
2022-08-16T13:04:21.061Z,9.70
2022-08-16T13:05:09.009Z,7.90
2022-08-16T13:06:06.977Z,10.50
2022-08-16T13:07:08.367Z,10.50